sensor_id;sensor_type;location;lat;lon;timestamp;pressure;altitude;pressure_sealevel;temperature;humidity
84443;BME280;74681;0.000;0.000;2024-03-22T00:00:06;99173.84;;;22.92;53.53
84443;BME280;74681;0.000;0.000;2024-03-22T00:02:36;99166.75;;;22.91;53.51
84443;BME280;74681;0.000;0.000;2024-03-22T00:05:01;99174.66;;;22.92;53.70
84443;BME280;74681;0.000;0.000;2024-03-22T00:07:27;99162.09;;;22.91;53.47
84443;BME280;74681;0.000;0.000;2024-03-22T00:09:52;99171.91;;;22.92;53.47
84443;BME280;74681;0.000;0.000;2024-03-22T00:12:17;99174.13;;;22.90;53.70
84443;BME280;74681;0.000;0.000;2024-03-22T00:14:42;99171.41;;;22.90;53.68
84443;BME280;74681;0.000;0.000;2024-03-22T00:17:08;99166.75;;;22.91;53.64
84443;BME280;74681;0.000;0.000;2024-03-22T00:19:34;99162.38;;;22.90;53.57
84443;BME280;74681;0.000;0.000;2024-03-22T00:21:59;99165.09;;;22.90;53.58
84443;BME280;74681;0.000;0.000;2024-03-22T00:24:25;99161.53;;;22.89;53.34
84443;BME280;74681;0.000;0.000;2024-03-22T00:26:50;99166.22;;;22.89;53.36
84443;BME280;74681;0.000;0.000;2024-03-22T00:29:15;99166.22;;;22.89;53.39
84443;BME280;74681;0.000;0.000;2024-03-22T00:31:41;99159.94;;;22.88;53.49
84443;BME280;74681;0.000;0.000;2024-03-22T00:34:06;99162.66;;;22.88;53.40
84443;BME280;74681;0.000;0.000;2024-03-22T00:36:31;99166.22;;;22.89;53.45
84443;BME280;74681;0.000;0.000;2024-03-22T00:38:56;99161.03;;;22.87;53.33
84443;BME280;74681;0.000;0.000;2024-03-22T00:41:22;99158.28;;;22.87;53.27
84443;BME280;74681;0.000;0.000;2024-03-22T00:43:47;99155.56;;;22.87;53.42
84443;BME280;74681;0.000;0.000;2024-03-22T00:46:12;99158.28;;;22.87;53.66
84443;BME280;74681;0.000;0.000;2024-03-22T00:48:38;99154.72;;;22.87;53.50
84443;BME280;74681;0.000;0.000;2024-03-22T00:51:03;99150.38;;;22.86;53.35
84443;BME280;74681;0.000;0.000;2024-03-22T00:53:29;99155.84;;;22.86;53.39
84443;BME280;74681;0.000;0.000;2024-03-22T00:55:55;99150.38;;;22.86;53.38
84443;BME280;74681;0.000;0.000;2024-03-22T00:58:21;99140.53;;;22.85;53.63
84443;BME280;74681;0.000;0.000;2024-03-22T01:00:46;99143.25;;;22.85;53.33
84443;BME280;74681;0.000;0.000;2024-03-22T01:03:12;99134.22;;;22.84;53.43
84443;BME280;74681;0.000;0.000;2024-03-22T01:05:37;99142.44;;;22.84;53.48
84443;BME280;74681;0.000;0.000;2024-03-22T01:08:03;99141.63;;;22.84;53.64
84443;BME280;74681;0.000;0.000;2024-03-22T01:10:28;99146.00;;;22.85;53.66
84443;BME280;74681;0.000;0.000;2024-03-22T01:12:54;99144.38;;;22.84;53.63
84443;BME280;74681;0.000;0.000;2024-03-22T01:15:19;99138.09;;;22.83;53.48
84443;BME280;74681;0.000;0.000;2024-03-22T01:17:44;99138.09;;;22.83;53.47
84443;BME280;74681;0.000;0.000;2024-03-22T01:20:10;99137.28;;;22.83;53.63
84443;BME280;74681;0.000;0.000;2024-03-22T01:22:35;99140.00;;;22.83;53.51
84443;BME280;74681;0.000;0.000;2024-03-22T01:25:02;99135.63;;;22.82;53.65
84443;BME280;74681;0.000;0.000;2024-03-22T01:27:27;99135.38;;;22.83;53.66
84443;BME280;74681;0.000;0.000;2024-03-22T01:29:52;99135.63;;;22.82;53.38
84443;BME280;74681;0.000;0.000;2024-03-22T01:32:18;99126.59;;;22.81;53.48
84443;BME280;74681;0.000;0.000;2024-03-22T01:34:43;99128.56;;;22.81;53.55
84443;BME280;74681;0.000;0.000;2024-03-22T01:37:08;99127.72;;;22.80;53.78
84443;BME280;74681;0.000;0.000;2024-03-22T01:39:34;99133.22;;;22.80;53.57
84443;BME280;74681;0.000;0.000;2024-03-22T01:41:59;99132.38;;;22.80;53.47
84443;BME280;74681;0.000;0.000;2024-03-22T01:44:28;99128.81;;;22.79;53.61
84443;BME280;74681;0.000;0.000;2024-03-22T01:46:53;99130.47;;;22.80;53.63
84443;BME280;74681;0.000;0.000;2024-03-22T01:49:19;99128.00;;;22.79;53.67
84443;BME280;74681;0.000;0.000;2024-03-22T01:51:44;99130.75;;;22.79;53.38
84443;BME280;74681;0.000;0.000;2024-03-22T01:54:09;99133.47;;;22.79;53.38
84443;BME280;74681;0.000;0.000;2024-03-22T01:56:38;99131.88;;;22.78;53.62
84443;BME280;74681;0.000;0.000;2024-03-22T01:59:06;99131.06;;;22.77;53.46
84443;BME280;74681;0.000;0.000;2024-03-22T02:01:32;99124.75;;;22.77;53.71
84443;BME280;74681;0.000;0.000;2024-03-22T02:03:57;99122.84;;;22.77;53.30
84443;BME280;74681;0.000;0.000;2024-03-22T02:06:23;99119.28;;;22.77;53.46
84443;BME280;74681;0.000;0.000;2024-03-22T02:08:48;99119.28;;;22.77;53.43
84443;BME280;74681;0.000;0.000;2024-03-22T02:11:13;99123.13;;;22.76;53.48
84443;BME280;74681;0.000;0.000;2024-03-22T02:13:39;99112.16;;;22.76;53.33
84443;BME280;74681;0.000;0.000;2024-03-22T02:16:04;99116.84;;;22.75;53.59
84443;BME280;74681;0.000;0.000;2024-03-22T02:18:30;99115.22;;;22.74;53.62
84443;BME280;74681;0.000;0.000;2024-03-22T02:20:56;99107.81;;;22.75;53.42
84443;BME280;74681;0.000;0.000;2024-03-22T02:23:40;99109.75;;;22.74;53.45
84443;BME280;74681;0.000;0.000;2024-03-22T02:26:06;99111.66;;;22.74;53.72
84443;BME280;74681;0.000;0.000;2024-03-22T02:28:32;99114.38;;;22.74;53.54
84443;BME280;74681;0.000;0.000;2024-03-22T02:30:58;99119.88;;;22.74;53.69
84443;BME280;74681;0.000;0.000;2024-03-22T02:33:23;99107.28;;;22.73;53.55
84443;BME280;74681;0.000;0.000;2024-03-22T02:35:49;99113.56;;;22.73;53.48
84443;BME280;74681;0.000;0.000;2024-03-22T02:43:05;99116.31;;;22.73;53.53
84443;BME280;74681;0.000;0.000;2024-03-22T02:45:30;99111.13;;;22.72;53.49
84443;BME280;74681;0.000;0.000;2024-03-22T02:47:56;99110.31;;;22.71;53.61
84443;BME280;74681;0.000;0.000;2024-03-22T02:50:21;99118.53;;;22.71;53.49
84443;BME280;74681;0.000;0.000;2024-03-22T02:52:47;99114.16;;;22.70;53.73
84443;BME280;74681;0.000;0.000;2024-03-22T02:55:13;99111.41;;;22.70;53.56
84443;BME280;74681;0.000;0.000;2024-03-22T02:57:38;99111.41;;;22.70;53.64
84443;BME280;74681;0.000;0.000;2024-03-22T03:00:04;99113.38;;;22.70;53.59
84443;BME280;74681;0.000;0.000;2024-03-22T03:02:30;99117.72;;;22.71;53.68
84443;BME280;74681;0.000;0.000;2024-03-22T03:04:55;99107.06;;;22.69;53.61
84443;BME280;74681;0.000;0.000;2024-03-22T03:07:20;99109.81;;;22.69;53.41
84443;BME280;74681;0.000;0.000;2024-03-22T03:09:46;99109.81;;;22.69;53.60
84443;BME280;74681;0.000;0.000;2024-03-22T03:12:11;99110.91;;;22.68;53.60
84443;BME280;74681;0.000;0.000;2024-03-22T03:14:36;99097.53;;;22.67;53.54
84443;BME280;74681;0.000;0.000;2024-03-22T03:17:02;99097.22;;;22.68;53.46
84443;BME280;74681;0.000;0.000;2024-03-22T03:19:27;99097.22;;;22.68;53.47
84443;BME280;74681;0.000;0.000;2024-03-22T03:21:52;99102.19;;;22.66;53.41
84443;BME280;74681;0.000;0.000;2024-03-22T03:24:18;99099.44;;;22.66;53.64
84443;BME280;74681;0.000;0.000;2024-03-22T03:26:43;99114.72;;;22.67;53.26
84443;BME280;74681;0.000;0.000;2024-03-22T03:29:08;99106.00;;;22.65;53.44
84443;BME280;74681;0.000;0.000;2024-03-22T03:31:34;99104.09;;;22.66;53.46
84443;BME280;74681;0.000;0.000;2024-03-22T03:34:00;99102.19;;;22.66;53.55
84443;BME280;74681;0.000;0.000;2024-03-22T03:36:25;99108.75;;;22.65;53.50
84443;BME280;74681;0.000;0.000;2024-03-22T03:38:51;99107.94;;;22.65;53.62
84443;BME280;74681;0.000;0.000;2024-03-22T03:41:16;99114.22;;;22.65;53.52
84443;BME280;74681;0.000;0.000;2024-03-22T03:43:41;99109.84;;;22.64;53.57
84443;BME280;74681;0.000;0.000;2024-03-22T03:46:07;99112.59;;;22.64;53.58
84443;BME280;74681;0.000;0.000;2024-03-22T03:48:32;99109.84;;;22.64;53.56
84443;BME280;74681;0.000;0.000;2024-03-22T03:50:59;99111.78;;;22.64;53.52
84443;BME280;74681;0.000;0.000;2024-03-22T03:53:28;99111.78;;;22.64;53.48
84443;BME280;74681;0.000;0.000;2024-03-22T03:55:53;99110.94;;;22.63;53.63
84443;BME280;74681;0.000;0.000;2024-03-22T03:58:18;99111.78;;;22.64;53.45
84443;BME280;74681;0.000;0.000;2024-03-22T04:00:44;99116.41;;;22.63;53.62
84443;BME280;74681;0.000;0.000;2024-03-22T04:03:09;99110.13;;;22.62;53.43
84443;BME280;74681;0.000;0.000;2024-03-22T04:05:35;99119.16;;;22.63;53.67
84443;BME280;74681;0.000;0.000;2024-03-22T04:08:00;99116.69;;;22.61;53.57
84443;BME280;74681;0.000;0.000;2024-03-22T04:10:25;99120.25;;;22.62;53.59
84443;BME280;74681;0.000;0.000;2024-03-22T04:12:51;99118.63;;;22.61;53.65
84443;BME280;74681;0.000;0.000;2024-03-22T04:15:16;99114.25;;;22.60;53.46
84443;BME280;74681;0.000;0.000;2024-03-22T04:17:41;99111.53;;;22.60;53.66
84443;BME280;74681;0.000;0.000;2024-03-22T04:20:07;99113.44;;;22.59;53.67
84443;BME280;74681;0.000;0.000;2024-03-22T04:22:33;99112.63;;;22.59;53.63
84443;BME280;74681;0.000;0.000;2024-03-22T04:24:59;99117.00;;;22.60;53.45
84443;BME280;74681;0.000;0.000;2024-03-22T04:27:24;99121.66;;;22.59;53.51
84443;BME280;74681;0.000;0.000;2024-03-22T04:29:49;99124.38;;;22.59;53.85
84443;BME280;74681;0.000;0.000;2024-03-22T04:32:15;99126.31;;;22.59;53.75
84443;BME280;74681;0.000;0.000;2024-03-22T04:34:43;99122.75;;;22.58;53.65
84443;BME280;74681;0.000;0.000;2024-03-22T04:37:09;99124.69;;;22.58;53.69
84443;BME280;74681;0.000;0.000;2024-03-22T04:39:38;99118.41;;;22.57;53.53
84443;BME280;74681;0.000;0.000;2024-03-22T04:42:03;99125.78;;;22.57;53.55
84443;BME280;74681;0.000;0.000;2024-03-22T04:44:29;99133.69;;;22.58;53.78
84443;BME280;74681;0.000;0.000;2024-03-22T04:46:54;99134.00;;;22.57;53.57
84443;BME280;74681;0.000;0.000;2024-03-22T04:49:20;99136.72;;;22.57;53.58
84443;BME280;74681;0.000;0.000;2024-03-22T04:51:45;99137.81;;;22.56;53.66
84443;BME280;74681;0.000;0.000;2024-03-22T04:54:11;99135.09;;;22.56;53.52
84443;BME280;74681;0.000;0.000;2024-03-22T04:56:36;99132.34;;;22.56;53.52
84443;BME280;74681;0.000;0.000;2024-03-22T04:59:01;99133.47;;;22.55;53.64
84443;BME280;74681;0.000;0.000;2024-03-22T05:01:27;99123.34;;;22.55;53.46
84443;BME280;74681;0.000;0.000;2024-03-22T05:03:52;99128.84;;;22.55;53.54
84443;BME280;74681;0.000;0.000;2024-03-22T05:06:18;99125.28;;;22.55;53.53
84443;BME280;74681;0.000;0.000;2024-03-22T05:08:43;99138.13;;;22.54;53.46
84443;BME280;74681;0.000;0.000;2024-03-22T05:11:09;99131.03;;;22.53;53.80
84443;BME280;74681;0.000;0.000;2024-03-22T05:13:34;99134.56;;;22.54;53.45
84443;BME280;74681;0.000;0.000;2024-03-22T05:15:59;99136.50;;;22.53;53.50
84443;BME280;74681;0.000;0.000;2024-03-22T05:18:25;99136.50;;;22.53;53.46
84443;BME280;74681;0.000;0.000;2024-03-22T05:20:50;99135.66;;;22.53;53.74
84443;BME280;74681;0.000;0.000;2024-03-22T05:23:15;99135.66;;;22.53;53.60
84443;BME280;74681;0.000;0.000;2024-03-22T05:25:41;99138.41;;;22.53;53.50
84443;BME280;74681;0.000;0.000;2024-03-22T05:28:07;99131.31;;;22.52;53.74
84443;BME280;74681;0.000;0.000;2024-03-22T05:30:32;99125.84;;;22.52;53.72
84443;BME280;74681;0.000;0.000;2024-03-22T05:32:58;99124.22;;;22.51;53.63
84443;BME280;74681;0.000;0.000;2024-03-22T05:35:23;99131.59;;;22.50;53.67
84443;BME280;74681;0.000;0.000;2024-03-22T05:37:48;99135.16;;;22.51;53.65
84443;BME280;74681;0.000;0.000;2024-03-22T05:40:14;99135.97;;;22.51;53.58
84443;BME280;74681;0.000;0.000;2024-03-22T05:42:40;99128.88;;;22.50;53.50
84443;BME280;74681;0.000;0.000;2024-03-22T05:45:05;99128.06;;;22.50;53.79
84443;BME280;74681;0.000;0.000;2024-03-22T05:47:31;99138.19;;;22.49;53.70
84443;BME280;74681;0.000;0.000;2024-03-22T05:49:56;99126.44;;;22.49;53.58
84443;BME280;74681;0.000;0.000;2024-03-22T05:52:21;99123.69;;;22.49;53.64
84443;BME280;74681;0.000;0.000;2024-03-22T05:54:47;99125.63;;;22.48;53.58
84443;BME280;74681;0.000;0.000;2024-03-22T05:57:13;99129.16;;;22.49;53.79
84443;BME280;74681;0.000;0.000;2024-03-22T05:59:38;99123.97;;;22.47;53.80
84443;BME280;74681;0.000;0.000;2024-03-22T06:02:04;99125.63;;;22.48;53.64
84443;BME280;74681;0.000;0.000;2024-03-22T06:04:29;99118.50;;;22.47;53.78
84443;BME280;74681;0.000;0.000;2024-03-22T06:06:55;99115.75;;;22.47;53.79
84443;BME280;74681;0.000;0.000;2024-03-22T06:09:20;99109.50;;;22.47;53.65
84443;BME280;74681;0.000;0.000;2024-03-22T06:11:52;99116.88;;;22.46;53.71
84443;BME280;74681;0.000;0.000;2024-03-22T06:14:18;99127.00;;;22.46;53.54
84443;BME280;74681;0.000;0.000;2024-03-22T06:16:43;99125.38;;;22.45;53.85
84443;BME280;74681;0.000;0.000;2024-03-22T06:19:09;99127.00;;;22.46;53.73
84443;BME280;74681;0.000;0.000;2024-03-22T06:21:34;99128.09;;;22.45;53.45
84443;BME280;74681;0.000;0.000;2024-03-22T06:23:59;99130.84;;;22.45;53.76
84443;BME280;74681;0.000;0.000;2024-03-22T06:26:24;99123.47;;;22.45;53.65
84443;BME280;74681;0.000;0.000;2024-03-22T06:28:51;99127.84;;;22.46;54.29
84443;BME280;74681;0.000;0.000;2024-03-22T06:31:16;99123.19;;;22.47;54.69
84443;BME280;74681;0.000;0.000;2024-03-22T06:33:42;99132.72;;;22.49;54.96
84443;BME280;74681;0.000;0.000;2024-03-22T06:36:07;99133.53;;;22.50;55.11
84443;BME280;74681;0.000;0.000;2024-03-22T06:38:33;99136.81;;;22.52;55.50
84443;BME280;74681;0.000;0.000;2024-03-22T06:40:58;99142.28;;;22.52;55.51
84443;BME280;74681;0.000;0.000;2024-03-22T06:43:24;99138.41;;;22.53;55.22
84443;BME280;74681;0.000;0.000;2024-03-22T06:45:49;99139.22;;;22.53;55.28
84443;BME280;74681;0.000;0.000;2024-03-22T06:48:15;99134.31;;;22.55;55.73
84443;BME280;74681;0.000;0.000;2024-03-22T06:50:41;99126.88;;;22.56;55.98
84443;BME280;74681;0.000;0.000;2024-03-22T06:53:06;99131.25;;;22.57;55.83
84443;BME280;74681;0.000;0.000;2024-03-22T06:55:32;99132.09;;;22.57;55.86
84443;BME280;74681;0.000;0.000;2024-03-22T06:57:57;99134.81;;;22.57;56.01
84443;BME280;74681;0.000;0.000;2024-03-22T07:00:22;99132.09;;;22.57;55.39
84443;BME280;74681;0.000;0.000;2024-03-22T07:02:47;99142.72;;;22.59;55.38
84443;BME280;74681;0.000;0.000;2024-03-22T07:05:13;99141.63;;;22.60;55.72
84443;BME280;74681;0.000;0.000;2024-03-22T07:07:38;99138.06;;;22.59;55.97
84443;BME280;74681;0.000;0.000;2024-03-22T07:10:04;99142.44;;;22.60;55.92
84443;BME280;74681;0.000;0.000;2024-03-22T07:12:33;99145.47;;;22.59;55.17
84443;BME280;74681;0.000;0.000;2024-03-22T07:15:01;99138.38;;;22.58;55.08
84443;BME280;74681;0.000;0.000;2024-03-22T07:17:27;99141.13;;;22.58;54.74
84443;BME280;74681;0.000;0.000;2024-03-22T07:19:53;99146.84;;;22.56;54.42
84443;BME280;74681;0.000;0.000;2024-03-22T07:22:19;99152.34;;;22.56;53.95
84443;BME280;74681;0.000;0.000;2024-03-22T07:24:44;99159.44;;;22.57;54.25
84443;BME280;74681;0.000;0.000;2024-03-22T07:27:10;99149.59;;;22.56;54.22
84443;BME280;74681;0.000;0.000;2024-03-22T07:29:35;99146.03;;;22.56;54.27
84443;BME280;74681;0.000;0.000;2024-03-22T07:32:01;99148.00;;;22.55;54.12
84443;BME280;74681;0.000;0.000;2024-03-22T07:34:26;99148.78;;;22.56;53.93
84443;BME280;74681;0.000;0.000;2024-03-22T07:36:51;99158.13;;;22.55;53.94
84443;BME280;74681;0.000;0.000;2024-03-22T07:39:16;99151.81;;;22.54;53.97
84443;BME280;74681;0.000;0.000;2024-03-22T07:41:42;99148.25;;;22.54;53.84
84443;BME280;74681;0.000;0.000;2024-03-22T07:44:07;99147.16;;;22.55;53.72
84443;BME280;74681;0.000;0.000;2024-03-22T07:46:32;99152.91;;;22.53;53.74
84443;BME280;74681;0.000;0.000;2024-03-22T07:48:58;99151.31;;;22.52;53.84
84443;BME280;74681;0.000;0.000;2024-03-22T07:51:24;99157.56;;;22.53;53.44
84443;BME280;74681;0.000;0.000;2024-03-22T07:53:49;99162.25;;;22.52;53.56
84443;BME280;74681;0.000;0.000;2024-03-22T07:56:17;99166.91;;;22.52;53.87
84443;BME280;74681;0.000;0.000;2024-03-22T07:58:42;99169.63;;;22.52;53.70
84443;BME280;74681;0.000;0.000;2024-03-22T08:01:08;99169.63;;;22.52;53.98
84443;BME280;74681;0.000;0.000;2024-03-22T08:03:34;99161.44;;;22.52;53.64
84443;BME280;74681;0.000;0.000;2024-03-22T08:05:59;99166.06;;;22.51;53.52
84443;BME280;74681;0.000;0.000;2024-03-22T08:08:24;99168.00;;;22.51;53.56
84443;BME280;74681;0.000;0.000;2024-03-22T08:10:50;99170.47;;;22.52;53.48
84443;BME280;74681;0.000;0.000;2024-03-22T08:13:15;99180.84;;;22.50;53.68
84443;BME280;74681;0.000;0.000;2024-03-22T08:15:41;99182.81;;;22.50;53.63
84443;BME280;74681;0.000;0.000;2024-03-22T08:18:09;99191.00;;;22.50;53.47
84443;BME280;74681;0.000;0.000;2024-03-22T08:20:34;99191.00;;;22.50;53.42
84443;BME280;74681;0.000;0.000;2024-03-22T08:23:00;99192.09;;;22.49;53.39
84443;BME280;74681;0.000;0.000;2024-03-22T08:25:25;99182.81;;;22.50;53.51
84443;BME280;74681;0.000;0.000;2024-03-22T08:27:50;99183.91;;;22.49;53.49
84443;BME280;74681;0.000;0.000;2024-03-22T08:30:20;99187.44;;;22.49;53.30
84443;BME280;74681;0.000;0.000;2024-03-22T08:32:45;99183.91;;;22.49;53.36
84443;BME280;74681;0.000;0.000;2024-03-22T08:35:10;99186.63;;;22.49;53.24
84443;BME280;74681;0.000;0.000;2024-03-22T08:37:36;99183.06;;;22.48;53.48
84443;BME280;74681;0.000;0.000;2024-03-22T08:40:01;99191.28;;;22.48;53.46
84443;BME280;74681;0.000;0.000;2024-03-22T08:42:29;99194.03;;;22.48;53.45
84443;BME280;74681;0.000;0.000;2024-03-22T08:44:54;99185.81;;;22.48;53.41
84443;BME280;74681;0.000;0.000;2024-03-22T08:47:20;99182.81;;;22.50;53.38
84443;BME280;74681;0.000;0.000;2024-03-22T08:49:45;99191.28;;;22.48;53.43
84443;BME280;74681;0.000;0.000;2024-03-22T08:52:11;99192.09;;;22.49;53.34
84443;BME280;74681;0.000;0.000;2024-03-22T08:54:36;99181.97;;;22.49;53.63
84443;BME280;74681;0.000;0.000;2024-03-22T08:57:01;99183.91;;;22.49;53.73
84443;BME280;74681;0.000;0.000;2024-03-22T08:59:27;99182.81;;;22.50;53.41
84443;BME280;74681;0.000;0.000;2024-03-22T09:01:52;99178.13;;;22.50;53.87
84443;BME280;74681;0.000;0.000;2024-03-22T09:04:17;99176.50;;;22.49;53.60
84443;BME280;74681;0.000;0.000;2024-03-22T09:06:43;99171.84;;;22.50;53.61
84443;BME280;74681;0.000;0.000;2024-03-22T09:09:08;99171.84;;;22.50;53.67
84443;BME280;74681;0.000;0.000;2024-03-22T09:11:34;99173.47;;;22.51;53.64
84443;BME280;74681;0.000;0.000;2024-03-22T09:13:59;99159.78;;;22.51;53.77
84443;BME280;74681;0.000;0.000;2024-03-22T09:16:24;99161.69;;;22.50;53.66
84443;BME280;74681;0.000;0.000;2024-03-22T09:18:50;99152.41;;;22.51;53.82
84443;BME280;74681;0.000;0.000;2024-03-22T09:21:16;99160.59;;;22.51;53.89
84443;BME280;74681;0.000;0.000;2024-03-22T09:23:41;99162.25;;;22.52;53.73
84443;BME280;74681;0.000;0.000;2024-03-22T09:26:06;99163.03;;;22.53;53.95
84443;BME280;74681;0.000;0.000;2024-03-22T09:28:32;99163.84;;;22.53;53.73
84443;BME280;74681;0.000;0.000;2024-03-22T09:30:57;99155.66;;;22.53;53.72
84443;BME280;74681;0.000;0.000;2024-03-22T09:33:22;99156.47;;;22.54;53.92
84443;BME280;74681;0.000;0.000;2024-03-22T09:35:47;99149.09;;;22.54;53.79
84443;BME280;74681;0.000;0.000;2024-03-22T09:38:13;99152.63;;;22.55;53.79
84443;BME280;74681;0.000;0.000;2024-03-22T09:40:40;99146.34;;;22.54;54.14
84443;BME280;74681;0.000;0.000;2024-03-22T09:43:06;99143.31;;;22.56;54.29
84443;BME280;74681;0.000;0.000;2024-03-22T09:45:31;99134.31;;;22.55;54.42
84443;BME280;74681;0.000;0.000;2024-03-22T09:47:57;99138.66;;;22.56;54.03
84443;BME280;74681;0.000;0.000;2024-03-22T09:50:23;99131.25;;;22.57;54.15
84443;BME280;74681;0.000;0.000;2024-03-22T09:52:48;99133.19;;;22.56;53.70
84443;BME280;74681;0.000;0.000;2024-03-22T09:55:13;99122.22;;;22.56;53.59
84443;BME280;74681;0.000;0.000;2024-03-22T09:57:39;99132.09;;;22.57;53.43
84443;BME280;74681;0.000;0.000;2024-03-22T10:00:07;99123.88;;;22.57;53.49
84443;BME280;74681;0.000;0.000;2024-03-22T10:02:33;99116.47;;;22.58;53.17
84443;BME280;74681;0.000;0.000;2024-03-22T10:04:59;99120.00;;;22.58;53.02
84443;BME280;74681;0.000;0.000;2024-03-22T10:07:25;99118.09;;;22.59;52.98
84443;BME280;74681;0.000;0.000;2024-03-22T10:09:51;99117.56;;;22.57;52.53
84443;BME280;74681;0.000;0.000;2024-03-22T10:12:16;99116.47;;;22.58;52.77
84443;BME280;74681;0.000;0.000;2024-03-22T10:14:45;99109.88;;;22.59;52.68
84443;BME280;74681;0.000;0.000;2024-03-22T10:17:10;99105.53;;;22.58;52.53
84443;BME280;74681;0.000;0.000;2024-03-22T10:19:36;99096.50;;;22.57;52.76
84443;BME280;74681;0.000;0.000;2024-03-22T10:22:02;99101.66;;;22.59;52.29
84443;BME280;74681;0.000;0.000;2024-03-22T10:24:31;99105.53;;;22.58;52.06
84443;BME280;74681;0.000;0.000;2024-03-22T10:26:58;99094.59;;;22.58;51.82
84443;BME280;74681;0.000;0.000;2024-03-22T10:29:23;99105.53;;;22.58;51.88
84443;BME280;74681;0.000;0.000;2024-03-22T10:31:50;99101.97;;;22.57;51.90
84443;BME280;74681;0.000;0.000;2024-03-22T10:34:16;99093.47;;;22.59;51.53
84443;BME280;74681;0.000;0.000;2024-03-22T10:36:42;99092.63;;;22.58;51.58
84443;BME280;74681;0.000;0.000;2024-03-22T10:39:08;99090.72;;;22.59;51.24
84443;BME280;74681;0.000;0.000;2024-03-22T10:41:36;99086.38;;;22.58;51.35
84443;BME280;74681;0.000;0.000;2024-03-22T10:44:01;99093.47;;;22.59;50.98
84443;BME280;74681;0.000;0.000;2024-03-22T10:46:28;99097.00;;;22.59;51.04
84443;BME280;74681;0.000;0.000;2024-03-22T10:48:54;99086.38;;;22.58;51.09
84443;BME280;74681;0.000;0.000;2024-03-22T10:51:20;99088.00;;;22.59;50.85
84443;BME280;74681;0.000;0.000;2024-03-22T10:53:45;99088.00;;;22.59;51.13
84443;BME280;74681;0.000;0.000;2024-03-22T10:56:11;99088.00;;;22.59;51.08
84443;BME280;74681;0.000;0.000;2024-03-22T10:58:41;99095.09;;;22.60;51.13
84443;BME280;74681;0.000;0.000;2024-03-22T11:01:21;99098.94;;;22.59;51.28
84443;BME280;74681;0.000;0.000;2024-03-22T11:03:46;99090.72;;;22.59;51.38
84443;BME280;74681;0.000;0.000;2024-03-22T11:06:11;99091.53;;;22.59;51.28
84443;BME280;74681;0.000;0.000;2024-03-22T11:08:37;99080.59;;;22.59;51.48
84443;BME280;74681;0.000;0.000;2024-03-22T11:11:11;99086.88;;;22.60;51.33
84443;BME280;74681;0.000;0.000;2024-03-22T11:13:38;99081.69;;;22.58;51.36
84443;BME280;74681;0.000;0.000;2024-03-22T11:16:04;99082.50;;;22.59;51.54
84443;BME280;74681;0.000;0.000;2024-03-22T11:18:29;99081.41;;;22.60;51.12
84443;BME280;74681;0.000;0.000;2024-03-22T11:20:55;99073.22;;;22.60;51.44
84443;BME280;74681;0.000;0.000;2024-03-22T11:23:20;99075.94;;;22.60;51.44
84443;BME280;74681;0.000;0.000;2024-03-22T11:25:45;99079.50;;;22.60;51.52
84443;BME280;74681;0.000;0.000;2024-03-22T11:28:11;99068.56;;;22.60;51.36
84443;BME280;74681;0.000;0.000;2024-03-22T11:30:37;99061.94;;;22.61;51.57
84443;BME280;74681;0.000;0.000;2024-03-22T11:33:03;99070.16;;;22.61;51.33
84443;BME280;74681;0.000;0.000;2024-03-22T11:35:29;99068.25;;;22.62;51.50
84443;BME280;74681;0.000;0.000;2024-03-22T11:37:54;99061.94;;;22.61;51.34
84443;BME280;74681;0.000;0.000;2024-03-22T11:40:21;99060.03;;;22.62;51.39
84443;BME280;74681;0.000;0.000;2024-03-22T11:42:49;99067.16;;;22.63;51.46
84443;BME280;74681;0.000;0.000;2024-03-22T11:45:16;99053.47;;;22.63;51.44
84443;BME280;74681;0.000;0.000;2024-03-22T11:47:43;99052.66;;;22.62;51.46
84443;BME280;74681;0.000;0.000;2024-03-22T11:50:08;99046.34;;;22.62;51.14
84443;BME280;74681;0.000;0.000;2024-03-22T11:52:35;99039.78;;;22.63;51.47
84443;BME280;74681;0.000;0.000;2024-03-22T11:55:00;99035.94;;;22.64;51.37
84443;BME280;74681;0.000;0.000;2024-03-22T11:57:26;99039.50;;;22.65;51.43
84443;BME280;74681;0.000;0.000;2024-03-22T11:59:51;99032.13;;;22.65;51.45
84443;BME280;74681;0.000;0.000;2024-03-22T12:02:17;99031.28;;;22.65;51.54
84443;BME280;74681;0.000;0.000;2024-03-22T12:04:42;99041.16;;;22.66;51.57
84443;BME280;74681;0.000;0.000;2024-03-22T12:07:12;99026.63;;;22.65;51.73
84443;BME280;74681;0.000;0.000;2024-03-22T12:09:38;99017.31;;;22.66;51.44
84443;BME280;74681;0.000;0.000;2024-03-22T12:12:04;99016.50;;;22.66;51.61
84443;BME280;74681;0.000;0.000;2024-03-22T12:14:30;99023.63;;;22.67;51.72
84443;BME280;74681;0.000;0.000;2024-03-22T12:16:56;99023.63;;;22.67;52.08
84443;BME280;74681;0.000;0.000;2024-03-22T12:19:21;99019.75;;;22.68;51.97
84443;BME280;74681;0.000;0.000;2024-03-22T12:21:46;99020.56;;;22.68;51.84
84443;BME280;74681;0.000;0.000;2024-03-22T12:24:12;99017.84;;;22.68;51.62
84443;BME280;74681;0.000;0.000;2024-03-22T12:26:37;99014.00;;;22.69;51.48
84443;BME280;74681;0.000;0.000;2024-03-22T12:29:02;99013.19;;;22.69;51.36
84443;BME280;74681;0.000;0.000;2024-03-22T12:31:29;99021.41;;;22.69;51.20
84443;BME280;74681;0.000;0.000;2024-03-22T12:33:54;99020.31;;;22.70;51.18
84443;BME280;74681;0.000;0.000;2024-03-22T12:36:19;99016.75;;;22.69;51.53
84443;BME280;74681;0.000;0.000;2024-03-22T12:38:45;99003.88;;;22.70;51.27
84443;BME280;74681;0.000;0.000;2024-03-22T12:41:10;99006.63;;;22.70;51.46
84443;BME280;74681;0.000;0.000;2024-03-22T12:43:35;99003.88;;;22.70;51.20
84443;BME280;74681;0.000;0.000;2024-03-22T12:46:01;99005.78;;;22.69;51.24
84443;BME280;74681;0.000;0.000;2024-03-22T12:48:27;99001.13;;;22.70;51.28
84443;BME280;74681;0.000;0.000;2024-03-22T12:50:53;98997.59;;;22.69;50.94
84443;BME280;74681;0.000;0.000;2024-03-22T12:53:18;98988.25;;;22.70;51.63
84443;BME280;74681;0.000;0.000;2024-03-22T12:55:43;98990.97;;;22.70;51.23
84443;BME280;74681;0.000;0.000;2024-03-22T12:58:09;98995.66;;;22.70;51.39
84443;BME280;74681;0.000;0.000;2024-03-22T13:00:34;98985.50;;;22.70;51.47
84443;BME280;74681;0.000;0.000;2024-03-22T13:02:59;98980.84;;;22.71;51.43
84443;BME280;74681;0.000;0.000;2024-03-22T13:05:25;98977.00;;;22.72;51.30